Time;durP1;ratioP1;P1;durP2;ratioP2;P2;SDS_P1;SDS_P2;PMS_P1;PMS_P2;Temp;Humidity;BMP_temperature;BMP_pressure;BME280_temperature;BME280_humidity;BME280_pressure;Samples;Min_cycle;Max_cycle;Signal;HPM_P1;HPM_P2
2023/07/11 00:00:04;;;;;;;9.17;5.47;;;24.00;60.60;;;;;;5010353;28;21042;-75
2023/07/11 00:02:30;;;;;;;9.00;5.80;;;24.10;60.70;;;;;;5010744;28;20438;-74
2023/07/11 00:04:58;;;;;;;6.40;4.77;;;24.00;61.00;;;;;;5012661;28;20448;-74
2023/07/11 00:07:24;;;;;;;8.03;5.77;;;24.00;61.00;;;;;;5008539;28;21304;-75
2023/07/11 00:09:49;;;;;;;9.13;5.50;;;23.90;61.50;;;;;;5005375;28;20492;-74
2023/07/11 00:12:16;;;;;;;8.27;5.70;;;23.80;62.30;;;;;;5014239;28;20431;-75
2023/07/11 00:14:43;;;;;;;9.47;5.67;;;23.60;62.90;;;;;;5012631;28;20188;-75
2023/07/11 00:17:09;;;;;;;12.20;5.70;;;23.50;63.50;;;;;;5011341;28;20862;-75
2023/07/11 00:19:47;;;;;;;9.83;5.70;;;23.40;63.80;;;;;;5011692;28;20514;-75
2023/07/11 00:22:13;;;;;;;10.03;5.50;;;23.40;63.80;;;;;;5017689;28;20444;-74
2023/07/11 00:24:39;;;;;;;8.20;4.80;;;23.40;63.40;;;;;;5013094;28;20474;-75
2023/07/11 00:27:04;;;;;;;12.13;5.87;;;23.30;63.70;;;;;;5011867;28;20650;-74
2023/07/11 00:29:30;;;;;;;14.90;5.07;;;23.20;63.70;;;;;;5008854;28;20226;-74
2023/07/11 00:31:56;;;;;;;10.10;5.90;;;23.20;64.10;;;;;;5006822;28;20279;-74
2023/07/11 00:34:21;;;;;;;8.90;6.17;;;23.20;64.10;;;;;;5011565;28;20535;-75
2023/07/11 00:36:47;;;;;;;11.17;6.30;;;23.20;63.90;;;;;;5011918;28;20229;-74
2023/07/11 00:39:15;;;;;;;11.03;5.77;;;23.10;64.10;;;;;;5012464;28;20658;-74
2023/07/11 00:41:41;;;;;;;10.30;5.83;;;23.10;64.20;;;;;;5010043;28;20611;-74
2023/07/11 00:44:13;;;;;;;10.43;5.67;;;23.10;64.20;;;;;;5011430;28;20439;-74
2023/07/11 00:46:40;;;;;;;13.70;6.40;;;23.00;64.50;;;;;;5010375;28;20477;-73
2023/07/11 00:49:08;;;;;;;9.90;6.40;;;23.10;64.40;;;;;;5010541;28;20580;-72
2023/07/11 00:51:39;;;;;;;12.20;6.70;;;23.00;64.40;;;;;;5001459;28;20509;-73
2023/07/11 00:54:08;;;;;;;11.17;6.63;;;22.90;64.70;;;;;;5011103;28;20484;-73
2023/07/11 00:56:38;;;;;;;9.97;5.97;;;22.90;64.80;;;;;;5009179;28;20520;-73
2023/07/11 00:59:04;;;;;;;11.17;6.87;;;22.80;65.00;;;;;;5010096;28;20473;-73
2023/07/11 01:01:31;;;;;;;10.50;6.30;;;22.80;64.80;;;;;;5007070;28;20470;-72
2023/07/11 01:03:57;;;;;;;10.93;6.67;;;22.70;65.10;;;;;;5007350;28;20430;-75
2023/07/11 01:06:26;;;;;;;14.17;6.83;;;22.70;65.10;;;;;;5010820;28;20526;-75
2023/07/11 01:08:56;;;;;;;10.80;6.63;;;22.70;65.10;;;;;;5011066;28;20225;-75
2023/07/11 01:11:24;;;;;;;9.20;5.93;;;22.70;65.10;;;;;;5007845;28;20850;-76
2023/07/11 01:13:50;;;;;;;12.37;6.67;;;22.80;65.10;;;;;;5009580;28;20458;-75
2023/07/11 01:16:16;;;;;;;12.90;7.57;;;22.80;64.80;;;;;;5010463;28;20438;-74
2023/07/11 01:18:42;;;;;;;10.37;7.30;;;22.70;65.10;;;;;;5005663;28;20202;-75
2023/07/11 01:21:08;;;;;;;12.60;7.33;;;22.60;65.00;;;;;;5008167;28;20244;-75
2023/07/11 01:23:34;;;;;;;11.60;7.80;;;22.60;64.80;;;;;;5010203;28;20434;-74
2023/07/11 01:26:06;;;;;;;10.60;7.10;;;22.60;64.70;;;;;;5010649;28;20445;-75
2023/07/11 01:28:31;;;;;;;11.77;6.80;;;22.60;64.40;;;;;;5011153;28;20986;-75
2023/07/11 01:30:57;;;;;;;12.37;7.27;;;22.60;64.50;;;;;;5008532;28;20474;-75
2023/07/11 01:33:25;;;;;;;12.93;6.27;;;22.60;64.70;;;;;;5012126;28;20316;-77
2023/07/11 01:35:54;;;;;;;7.73;5.17;;;22.60;64.40;;;;;;5011499;28;20568;-75
2023/07/11 01:38:22;;;;;;;7.90;5.70;;;22.60;63.70;;;;;;5004877;28;20559;-77
2023/07/11 01:40:49;;;;;;;8.47;5.23;;;22.60;62.50;;;;;;5006885;28;20489;-76
2023/07/11 01:43:17;;;;;;;12.27;6.77;;;22.60;61.60;;;;;;5009254;28;20446;-75
2023/07/11 01:45:43;;;;;;;11.23;7.00;;;22.70;63.80;;;;;;5007663;28;21325;-75
2023/07/11 01:48:09;;;;;;;14.27;7.60;;;22.70;63.80;;;;;;5005188;28;20452;-75
2023/07/11 01:50:34;;;;;;;16.57;7.87;;;22.70;64.50;;;;;;5006140;28;20463;-74
2023/07/11 01:53:00;;;;;;;12.90;7.40;;;22.40;65.40;;;;;;5011659;28;20250;-74
2023/07/11 01:55:26;;;;;;;12.40;7.80;;;22.20;65.80;;;;;;5014972;28;20669;-74
2023/07/11 01:57:51;;;;;;;12.80;7.47;;;22.20;66.00;;;;;;5016761;28;20201;-76
2023/07/11 02:00:17;;;;;;;14.00;8.77;;;22.20;66.10;;;;;;5016687;28;20241;-74
2023/07/11 02:02:43;;;;;;;13.77;7.90;;;22.10;66.10;;;;;;5008782;28;20193;-75
2023/07/11 02:05:08;;;;;;;15.00;8.47;;;22.20;66.10;;;;;;5007629;28;20187;-75
2023/07/11 02:07:34;;;;;;;12.20;8.63;;;22.30;65.70;;;;;;5006947;28;20203;-74
2023/07/11 02:09:59;;;;;;;12.67;7.77;;;22.30;65.70;;;;;;5003335;28;20738;-76
2023/07/11 02:12:25;;;;;;;15.93;8.07;;;22.30;65.60;;;;;;5005699;28;20184;-75
2023/07/11 02:14:51;;;;;;;13.00;8.00;;;22.30;65.40;;;;;;5010604;28;20195;-76
2023/07/11 02:17:17;;;;;;;15.00;8.73;;;22.20;65.40;;;;;;5011454;28;20228;-74
2023/07/11 02:19:44;;;;;;;14.23;8.57;;;22.30;65.40;;;;;;5010913;28;20629;-74
2023/07/11 02:22:11;;;;;;;16.57;9.17;;;22.20;65.30;;;;;;5015081;28;20201;-76
2023/07/11 02:24:38;;;;;;;16.10;9.17;;;22.20;65.60;;;;;;5013744;28;20861;-76
2023/07/11 02:27:04;;;;;;;16.30;9.50;;;22.10;65.70;;;;;;5013640;28;20447;-74
2023/07/11 02:29:30;;;;;;;15.53;8.40;;;22.10;65.70;;;;;;5011698;28;20853;-75
2023/07/11 02:31:55;;;;;;;14.87;9.00;;;22.10;65.60;;;;;;5016561;28;20284;-74
2023/07/11 02:34:21;;;;;;;13.97;9.03;;;22.10;65.70;;;;;;5013672;28;20180;-74
2023/07/11 02:36:47;;;;;;;14.80;8.83;;;22.10;66.00;;;;;;5011996;28;20797;-75
2023/07/11 02:39:12;;;;;;;17.07;9.17;;;22.00;66.10;;;;;;5012374;28;20192;-76
2023/07/11 02:41:38;;;;;;;14.33;8.50;;;22.00;66.30;;;;;;5011113;28;20213;-75
2023/07/11 02:44:04;;;;;;;14.93;9.07;;;22.00;66.40;;;;;;5014161;28;20211;-75
2023/07/11 02:46:29;;;;;;;16.10;10.10;;;21.90;66.60;;;;;;5010662;28;20308;-75
2023/07/11 02:48:56;;;;;;;16.37;9.87;;;21.80;66.70;;;;;;5009457;28;20224;-75
2023/07/11 02:51:22;;;;;;;17.60;9.47;;;21.80;66.90;;;;;;5006497;28;20217;-76
2023/07/11 02:53:48;;;;;;;20.93;9.57;;;21.90;66.90;;;;;;5013820;28;20428;-75
2023/07/11 02:56:15;;;;;;;13.47;9.00;;;21.80;67.00;;;;;;5009624;28;20957;-75
2023/07/11 02:58:40;;;;;;;18.03;8.97;;;21.70;67.20;;;;;;5011620;28;20560;-75
2023/07/11 03:01:06;;;;;;;14.27;9.40;;;21.70;67.30;;;;;;5007206;28;20497;-75
2023/07/11 03:03:32;;;;;;;15.73;9.20;;;21.70;67.30;;;;;;5018474;28;20196;-74
2023/07/11 03:05:58;;;;;;;15.80;9.00;;;21.60;67.50;;;;;;5020052;28;20659;-74
2023/07/11 03:08:24;;;;;;;14.77;8.10;;;21.60;67.50;;;;;;5019284;28;20312;-73
2023/07/11 03:10:50;;;;;;;12.30;6.60;;;21.60;67.50;;;;;;5014596;28;20484;-74
2023/07/11 03:13:17;;;;;;;9.37;5.87;;;21.60;67.20;;;;;;5014390;28;20734;-78
2023/07/11 03:15:43;;;;;;;11.43;6.20;;;21.70;67.00;;;;;;5014893;28;20209;-77
2023/07/11 03:18:10;;;;;;;8.27;5.30;;;21.80;66.70;;;;;;5014016;28;20516;-79
2023/07/11 03:20:40;;;;;;;7.63;5.70;;;21.80;66.70;;;;;;5004074;28;20683;-77
2023/07/11 03:23:08;;;;;;;9.00;5.50;;;21.90;66.60;;;;;;5012917;28;20441;-73
2023/07/11 03:25:34;;;;;;;8.93;5.50;;;21.90;66.60;;;;;;5012575;28;20534;-73
2023/07/11 03:27:59;;;;;;;21.60;9.43;;;21.80;66.70;;;;;;5010895;28;20875;-72
2023/07/11 03:30:25;;;;;;;12.53;8.57;;;21.80;67.20;;;;;;5009159;28;20225;-74
2023/07/11 03:32:51;;;;;;;13.50;8.77;;;21.70;67.30;;;;;;5009885;28;20203;-76
2023/07/11 03:35:17;;;;;;;14.83;9.00;;;21.80;67.60;;;;;;5013799;28;20203;-76
2023/07/11 03:37:42;;;;;;;17.10;8.97;;;21.80;67.50;;;;;;5028884;28;20268;-76
2023/07/11 03:40:08;;;;;;;15.27;8.93;;;21.80;67.60;;;;;;5010485;28;20652;-75
2023/07/11 03:42:34;;;;;;;14.13;8.90;;;21.70;67.60;;;;;;5013299;28;20270;-77
2023/07/11 03:45:00;;;;;;;12.33;7.87;;;21.60;67.90;;;;;;5066877;22;21024;-74
2023/07/11 03:47:25;;;;;;;12.50;6.80;;;21.60;68.00;;;;;;5039943;28;20582;-74
2023/07/11 03:49:51;;;;;;;10.30;6.10;;;21.60;67.90;;;;;;5041754;28;20263;-74
2023/07/11 03:52:16;;;;;;;13.83;6.07;;;21.60;67.60;;;;;;5050015;28;20176;-74
2023/07/11 03:54:42;;;;;;;8.97;5.90;;;21.60;67.50;;;;;;5045284;28;20180;-73
2023/07/11 03:57:08;;;;;;;10.80;4.90;;;21.60;67.50;;;;;;5049488;28;20252;-74
2023/07/11 03:59:33;;;;;;;10.47;5.83;;;21.70;67.50;;;;;;5036366;28;20195;-72
2023/07/11 04:01:59;;;;;;;12.47;7.33;;;21.60;67.60;;;;;;5042734;28;20536;-72
2023/07/11 04:04:25;;;;;;;17.10;9.23;;;21.70;67.70;;;;;;5044259;28;20225;-71
2023/07/11 04:06:50;;;;;;;12.60;8.40;;;21.60;68.00;;;;;;5039726;28;20744;-72
2023/07/11 04:09:16;;;;;;;13.43;8.40;;;21.60;68.00;;;;;;5039720;28;20217;-71
2023/07/11 04:11:41;;;;;;;17.50;9.37;;;21.60;68.30;;;;;;5040097;28;20218;-72
2023/07/11 04:14:10;;;;;;;13.20;8.00;;;21.60;68.30;;;;;;5042432;28;20274;-72
2023/07/11 04:16:35;;;;;;;12.40;8.13;;;21.60;68.00;;;;;;5040269;28;20198;-72
2023/07/11 04:19:02;;;;;;;13.93;8.33;;;21.60;68.20;;;;;;5044757;28;20441;-73
2023/07/11 04:21:28;;;;;;;10.17;7.00;;;21.60;68.20;;;;;;5043287;28;20208;-73
2023/07/11 04:23:53;;;;;;;10.20;5.53;;;21.60;68.30;;;;;;5048643;28;20450;-72
2023/07/11 04:26:19;;;;;;;13.33;7.67;;;21.60;68.30;;;;;;5055637;28;20270;-72
2023/07/11 04:28:44;;;;;;;13.23;7.23;;;21.60;68.20;;;;;;5045386;28;20630;-72
2023/07/11 04:31:10;;;;;;;13.00;8.73;;;21.80;68.00;;;;;;5045242;28;20303;-72
2023/07/11 04:33:35;;;;;;;10.20;7.53;;;21.80;67.90;;;;;;5037130;28;20195;-72
2023/07/11 04:36:12;;;;;;;16.07;8.63;;;21.80;68.00;;;;;;5034748;28;20610;-72
2023/07/11 04:38:38;;;;;;;17.50;9.13;;;21.80;67.90;;;;;;5036817;28;20219;-71
2023/07/11 04:41:05;;;;;;;14.13;9.23;;;21.70;68.30;;;;;;5039607;28;20555;-71
2023/07/11 04:43:33;;;;;;;18.37;9.50;;;21.70;68.20;;;;;;5042473;28;20971;-72
2023/07/11 04:45:59;;;;;;;19.20;10.37;;;21.80;68.20;;;;;;5048743;28;20465;-70
2023/07/11 04:48:25;;;;;;;14.93;8.50;;;21.80;68.20;;;;;;5050380;28;20438;-71
2023/07/11 04:51:03;;;;;;;14.63;8.93;;;21.90;68.20;;;;;;5038852;28;20533;-71
2023/07/11 04:53:30;;;;;;;13.50;8.70;;;21.80;68.20;;;;;;5039936;28;20469;-72
2023/07/11 04:56:04;;;;;;;12.60;8.43;;;21.80;68.20;;;;;;5046018;28;20477;-79
2023/07/11 04:58:31;;;;;;;16.57;8.60;;;21.90;68.30;;;;;;5052337;28;20438;-79
2023/07/11 05:01:00;;;;;;;14.70;8.23;;;21.90;68.30;;;;;;5047312;28;20515;-81
2023/07/11 05:03:27;;;;;;;18.23;9.03;;;21.90;68.30;;;;;;5052050;28;20434;-81
2023/07/11 05:05:52;;;;;;;14.83;8.77;;;21.80;68.30;;;;;;5054126;28;20435;-82
2023/07/11 05:08:18;;;;;;;18.13;8.50;;;21.80;68.50;;;;;;5047626;28;20443;-80
2023/07/11 05:11:12;;;;;;;15.07;8.43;;;21.80;68.60;;;;;;5057855;28;20659;-82
2023/07/11 05:13:39;;;;;;;16.50;8.57;;;21.80;68.80;;;;;;5055327;28;20197;-80
2023/07/11 05:16:07;;;;;;;12.53;7.90;;;21.90;68.60;;;;;;5050690;28;20447;-81
2023/07/11 05:18:34;;;;;;;16.63;8.90;;;21.90;68.50;;;;;;5043949;28;20445;-73
2023/07/11 05:21:00;;;;;;;18.10;9.00;;;22.00;68.50;;;;;;5034834;28;20557;-74
2023/07/11 05:23:28;;;;;;;15.07;8.23;;;22.00;68.20;;;;;;5034548;28;20522;-74
2023/07/11 05:25:54;;;;;;;15.40;8.43;;;22.10;68.00;;;;;;5043306;28;20196;-74
2023/07/11 05:28:21;;;;;;;15.60;8.80;;;22.20;68.00;;;;;;5030871;28;20744;-75
2023/07/11 05:30:47;;;;;;;18.40;10.17;;;22.20;67.90;;;;;;5035096;28;20761;-74
2023/07/11 05:33:13;;;;;;;13.57;8.67;;;22.30;67.70;;;;;;5035399;28;20578;-73
2023/07/11 05:35:46;;;;;;;12.37;8.53;;;22.40;67.70;;;;;;5035507;28;20429;-74
2023/07/11 05:38:14;;;;;;;13.77;8.30;;;22.50;67.60;;;;;;5036399;28;20274;-73
2023/07/11 05:40:43;;;;;;;12.77;8.20;;;22.60;67.60;;;;;;5039937;28;20464;-74
2023/07/11 05:43:09;;;;;;;15.17;9.23;;;22.70;67.50;;;;;;5040373;28;20753;-74
2023/07/11 05:45:34;;;;;;;15.07;8.30;;;22.80;67.30;;;;;;5032259;28;20469;-75
2023/07/11 05:48:00;;;;;;;16.40;9.10;;;23.00;66.30;;;;;;5039134;28;20194;-75
2023/07/11 05:50:37;;;;;;;15.50;9.70;;;23.10;65.80;;;;;;5041385;28;20234;-75
2023/07/11 05:53:03;;;;;;;11.70;8.27;;;23.20;65.80;;;;;;5040613;28;20194;-74
2023/07/11 05:55:28;;;;;;;15.17;10.07;;;23.30;65.70;;;;;;5043545;28;20553;-74
2023/07/11 05:57:54;;;;;;;12.90;8.60;;;23.40;65.40;;;;;;5038285;28;20194;-74
2023/07/11 06:00:20;;;;;;;12.47;8.20;;;23.60;65.10;;;;;;5042308;28;20216;-75
2023/07/11 06:02:46;;;;;;;14.57;9.27;;;23.70;64.70;;;;;;5041726;28;20189;-74
2023/07/11 06:05:11;;;;;;;14.90;8.50;;;23.80;64.20;;;;;;5047349;28;20212;-74
2023/07/11 06:07:38;;;;;;;13.97;8.37;;;23.90;63.90;;;;;;5038225;28;20198;-74
2023/07/11 06:10:04;;;;;;;13.73;8.60;;;23.90;64.20;;;;;;5035040;28;20243;-74
2023/07/11 06:12:29;;;;;;;13.97;8.53;;;24.00;64.40;;;;;;5041067;28;20469;-74
2023/07/11 06:14:55;;;;;;;14.50;8.13;;;24.10;64.20;;;;;;5052065;28;20541;-73
2023/07/11 06:17:21;;;;;;;15.77;8.50;;;24.20;64.20;;;;;;5047824;28;20290;-75
2023/07/11 06:19:46;;;;;;;13.13;8.93;;;24.30;64.10;;;;;;5041891;28;21053;-75
2023/07/11 06:22:14;;;;;;;14.80;8.60;;;24.50;63.80;;;;;;5042657;28;20194;-75
2023/07/11 06:24:41;;;;;;;15.03;8.40;;;24.60;63.70;;;;;;5043470;28;20204;-75
2023/07/11 06:27:07;;;;;;;15.30;8.90;;;24.70;63.20;;;;;;5042095;28;20932;-74
2023/07/11 06:29:32;;;;;;;13.83;8.60;;;24.70;63.10;;;;;;5045980;28;20578;-74
2023/07/11 06:31:58;;;;;;;14.53;7.93;;;24.40;63.90;;;;;;5046272;28;20221;-76
2023/07/11 06:34:25;;;;;;;12.93;8.30;;;24.50;64.10;;;;;;5047246;28;20190;-74
2023/07/11 06:36:51;;;;;;;14.80;8.30;;;24.60;63.90;;;;;;5042913;28;20187;-74
2023/07/11 06:39:16;;;;;;;11.90;8.73;;;24.40;64.20;;;;;;5045055;28;20443;-73
2023/07/11 06:41:42;;;;;;;16.00;8.67;;;24.40;64.50;;;;;;5041971;28;20507;-75
2023/07/11 06:44:08;;;;;;;16.00;8.17;;;24.60;64.20;;;;;;5037924;28;20196;-74
2023/07/11 06:46:34;;;;;;;14.93;7.73;;;24.60;63.90;;;;;;5039627;28;20186;-73
2023/07/11 06:49:00;;;;;;;13.23;7.43;;;24.80;63.80;;;;;;5047217;28;20468;-74
2023/07/11 06:51:26;;;;;;;17.50;8.17;;;24.80;63.80;;;;;;5046481;28;20487;-74
2023/07/11 06:53:52;;;;;;;11.80;7.90;;;25.10;63.40;;;;;;5049637;28;20196;-74
2023/07/11 06:56:18;;;;;;;12.10;8.10;;;24.90;63.10;;;;;;5043883;28;20447;-74
2023/07/11 06:58:44;;;;;;;15.00;8.03;;;24.80;63.40;;;;;;5041544;28;20249;-74
2023/07/11 07:01:11;;;;;;;13.00;8.20;;;24.90;63.40;;;;;;5046753;28;20207;-73
2023/07/11 07:03:37;;;;;;;14.00;8.30;;;25.00;63.40;;;;;;5047990;28;20514;-74
2023/07/11 07:06:11;;;;;;;14.47;8.40;;;25.00;63.40;;;;;;5053062;28;20440;-76
2023/07/11 07:08:37;;;;;;;12.20;7.60;;;25.20;63.10;;;;;;5046061;28;20275;-74
2023/07/11 07:11:03;;;;;;;14.93;8.73;;;25.30;63.10;;;;;;5040674;28;20472;-75
2023/07/11 07:13:29;;;;;;;14.97;8.20;;;25.40;62.60;;;;;;5049110;28;20486;-75
2023/07/11 07:15:59;;;;;;;14.90;7.60;;;25.50;62.20;;;;;;5046003;28;20478;-76
2023/07/11 07:18:27;;;;;;;11.47;7.57;;;25.40;62.50;;;;;;5038338;28;20454;-76
2023/07/11 07:20:54;;;;;;;15.47;8.00;;;25.50;62.20;;;;;;5041739;28;20476;-75
2023/07/11 07:23:20;;;;;;;14.00;8.63;;;25.60;62.00;;;;;;5046760;28;20808;-75
2023/07/11 07:25:51;;;;;;;15.93;7.93;;;25.80;61.60;;;;;;5049617;28;20290;-75
2023/07/11 07:28:17;;;;;;;13.07;8.07;;;25.80;61.60;;;;;;5046751;28;20440;-73
2023/07/11 07:30:47;;;;;;;14.80;7.97;;;25.90;61.00;;;;;;5035336;28;21174;-74
2023/07/11 07:33:13;;;;;;;10.10;7.03;;;25.90;61.00;;;;;;5040362;28;20207;-75
2023/07/11 07:35:40;;;;;;;16.83;7.30;;;26.20;60.30;;;;;;5044641;28;20468;-74
2023/07/11 07:38:06;;;;;;;10.60;6.90;;;26.40;59.60;;;;;;5034915;28;20236;-73
2023/07/11 07:40:31;;;;;;;15.57;8.87;;;26.60;59.50;;;;;;5038218;28;20553;-76
2023/07/11 07:42:57;;;;;;;14.30;7.60;;;26.70;59.20;;;;;;5046331;28;20509;-75
2023/07/11 07:45:23;;;;;;;10.10;6.80;;;26.80;58.20;;;;;;5046627;28;20218;-75
2023/07/11 07:47:48;;;;;;;12.00;7.77;;;27.00;58.00;;;;;;5041221;28;20245;-75
2023/07/11 07:50:14;;;;;;;11.90;8.30;;;27.10;58.00;;;;;;5044412;28;20235;-76
2023/07/11 07:52:40;;;;;;;12.17;7.57;;;27.10;57.70;;;;;;5045254;28;20208;-76
2023/07/11 07:55:06;;;;;;;13.50;8.10;;;27.10;57.60;;;;;;5042957;28;20200;-75
2023/07/11 07:57:32;;;;;;;10.30;7.30;;;27.20;58.10;;;;;;5045042;28;20437;-76
2023/07/11 07:59:58;;;;;;;12.50;7.33;;;27.20;58.10;;;;;;5041187;28;20470;-74
2023/07/11 08:02:23;;;;;;;13.77;8.10;;;27.30;57.70;;;;;;5041040;28;20532;-75
2023/07/11 08:04:49;;;;;;;12.90;7.93;;;27.50;57.30;;;;;;5043050;28;20274;-76
2023/07/11 08:07:15;;;;;;;11.97;7.90;;;27.50;57.30;;;;;;5041991;28;20651;-74
2023/07/11 08:09:41;;;;;;;12.80;8.20;;;27.70;56.90;;;;;;5038322;28;20239;-75
2023/07/11 08:12:08;;;;;;;15.53;8.47;;;27.70;56.60;;;;;;5039908;28;20429;-75
2023/07/11 08:14:38;;;;;;;14.00;7.90;;;27.70;56.80;;;;;;5043401;28;20545;-75
2023/07/11 08:17:08;;;;;;;13.03;8.37;;;27.70;56.50;;;;;;5041022;28;21273;-75
2023/07/11 08:19:34;;;;;;;12.90;7.43;;;27.70;56.40;;;;;;5038744;28;20914;-74
2023/07/11 08:21:59;;;;;;;16.47;8.10;;;27.70;56.40;;;;;;5037591;28;20416;-75
2023/07/11 08:24:26;;;;;;;13.53;9.00;;;27.80;56.40;;;;;;5043362;28;20799;-75
2023/07/11 08:26:51;;;;;;;16.67;8.40;;;28.00;56.00;;;;;;5041086;28;20435;-76
2023/07/11 08:29:17;;;;;;;13.07;8.70;;;27.90;55.60;;;;;;5046794;28;20570;-75
2023/07/11 08:31:43;;;;;;;11.47;7.27;;;28.00;55.30;;;;;;5036578;28;20205;-75
2023/07/11 08:34:09;;;;;;;13.10;7.60;;;28.10;55.30;;;;;;5044191;28;20659;-74
2023/07/11 08:36:38;;;;;;;11.83;8.07;;;28.30;55.20;;;;;;5036930;28;20514;-75
2023/07/11 08:39:03;;;;;;;11.53;7.63;;;28.50;54.80;;;;;;5049277;28;20294;-74
2023/07/11 08:41:50;;;;;;;13.30;7.40;;;28.70;54.20;;;;;;5045379;28;20489;-76
2023/07/11 08:44:35;;;;;;;12.10;7.57;;;28.80;54.20;;;;;;5040463;28;20204;-75
2023/07/11 08:47:35;;;;;;;10.20;7.00;;;28.90;54.20;;;;;;5045226;28;20507;-75
2023/07/11 08:50:18;;;;;;;12.23;8.40;;;29.10;54.00;;;;;;4984313;28;20905;-74
2023/07/11 08:52:48;;;;;;;13.47;7.80;;;29.10;54.10;;;;;;4988662;28;20434;-74
2023/07/11 08:55:24;;;;;;;11.47;7.87;;;29.30;54.00;;;;;;4982312;28;20426;-74
2023/07/11 08:58:10;;;;;;;11.90;7.63;;;29.40;54.20;;;;;;4983463;28;20525;-74
2023/07/11 09:00:36;;;;;;;16.60;7.80;;;29.40;54.00;;;;;;4981284;28;20478;-75
2023/07/11 09:03:30;;;;;;;14.27;7.97;;;29.50;54.60;;;;;;4988283;28;20442;-73
2023/07/11 09:06:06;;;;;;;12.77;8.43;;;29.70;54.80;;;;;;4979978;28;20317;-75
2023/07/11 09:08:32;;;;;;;13.00;8.40;;;29.80;54.60;;;;;;4986653;28;20438;-74
2023/07/11 09:11:10;;;;;;;17.30;8.60;;;29.90;54.40;;;;;;4984760;28;20474;-74
2023/07/11 09:13:54;;;;;;;10.83;8.03;;;30.10;53.40;;;;;;4984005;28;20448;-74
2023/07/11 09:16:26;;;;;;;14.30;8.90;;;30.20;53.20;;;;;;4985443;28;20923;-74
2023/07/11 09:19:10;;;;;;;13.60;8.87;;;30.30;52.50;;;;;;4988024;28;20434;-73
2023/07/11 09:22:03;;;;;;;11.50;8.47;;;30.40;52.50;;;;;;4984974;28;20561;-74
2023/07/11 09:24:41;;;;;;;13.13;7.80;;;30.50;52.20;;;;;;4986030;28;20426;-73
2023/07/11 09:27:25;;;;;;;15.60;8.20;;;30.70;52.10;;;;;;5038002;28;20442;-75
2023/07/11 09:29:52;;;;;;;14.60;9.43;;;30.60;51.80;;;;;;5037103;28;20628;-74
2023/07/11 09:32:18;;;;;;;11.10;9.03;;;30.50;52.60;;;;;;5043771;28;20439;-74
2023/07/11 09:34:50;;;;;;;13.80;8.10;;;30.50;53.00;;;;;;5044709;28;21357;-74
2023/07/11 09:37:32;;;;;;;11.50;8.30;;;30.60;52.10;;;;;;5042586;28;20432;-73
2023/07/11 09:40:31;;;;;;;14.40;7.80;;;30.70;52.10;;;;;;5039522;28;20467;-74
2023/07/11 09:42:59;;;;;;;12.97;8.23;;;30.80;52.00;;;;;;5042593;28;20447;-73
2023/07/11 09:45:33;;;;;;;12.60;7.87;;;30.90;51.60;;;;;;5047096;28;20515;-74
2023/07/11 09:48:27;;;;;;;11.97;8.20;;;31.00;51.30;;;;;;5044131;28;20436;-73
2023/07/11 09:51:01;;;;;;;12.20;8.37;;;31.00;52.00;;;;;;5052695;28;20589;-73
2023/07/11 09:53:29;;;;;;;12.07;8.47;;;31.00;51.30;;;;;;5041556;28;20909;-73
2023/07/11 09:55:58;;;;;;;12.97;9.77;;;31.20;50.50;;;;;;5044211;28;20428;-74
2023/07/11 09:58:33;;;;;;;13.13;9.20;;;31.20;50.50;;;;;;5044717;28;20458;-74
2023/07/11 10:01:01;;;;;;;10.50;7.43;;;31.40;50.10;;;;;;5032483;28;20469;-74
2023/07/11 10:03:34;;;;;;;13.70;8.53;;;31.30;50.20;;;;;;5042635;28;20964;-73
2023/07/11 10:06:04;;;;;;;12.67;8.23;;;31.20;50.30;;;;;;5038953;28;20903;-74
2023/07/11 10:08:36;;;;;;;11.07;7.67;;;31.30;50.30;;;;;;5046213;28;20432;-73
2023/07/11 10:11:11;;;;;;;9.37;7.67;;;31.50;49.90;;;;;;5046812;28;20554;-74
2023/07/11 10:13:41;;;;;;;9.80;8.00;;;31.70;49.70;;;;;;5038005;28;20440;-74
2023/07/11 10:16:14;;;;;;;12.53;8.03;;;32.00;49.00;;;;;;5041385;28;20549;-73
2023/07/11 10:18:43;;;;;;;11.00;8.37;;;32.50;47.90;;;;;;5044124;28;20951;-74
2023/07/11 10:21:31;;;;;;;12.43;7.83;;;33.00;46.90;;;;;;5038078;28;20469;-72
2023/07/11 10:23:57;;;;;;;11.20;8.37;;;33.20;46.30;;;;;;5039957;28;20467;-73
2023/07/11 10:26:27;;;;;;;12.50;8.67;;;33.40;46.10;;;;;;5049950;28;20451;-73
2023/07/11 10:29:02;;;;;;;10.53;7.40;;;33.70;45.50;;;;;;5039061;28;20466;-72
2023/07/11 10:31:39;;;;;;;11.07;7.80;;;33.90;44.70;;;;;;5037910;28;20482;-72
2023/07/11 10:34:19;;;;;;;13.60;8.00;;;33.70;43.90;;;;;;5037568;28;20442;-73
2023/07/11 10:36:49;;;;;;;9.63;8.00;;;34.10;43.20;;;;;;5035520;28;20872;-73
2023/07/11 10:39:42;;;;;;;11.30;7.70;;;34.10;43.20;;;;;;5047946;28;20510;-71
2023/07/11 10:42:11;;;;;;;12.27;8.63;;;34.00;43.50;;;;;;5045807;28;20439;-73
2023/07/11 10:44:47;;;;;;;11.13;7.93;;;33.70;43.90;;;;;;5048717;28;20447;-73
2023/07/11 10:47:13;;;;;;;16.40;8.47;;;33.70;44.30;;;;;;5046780;28;20453;-73
2023/07/11 10:49:52;;;;;;;10.53;8.67;;;33.60;44.60;;;;;;5049821;28;20475;-75
2023/07/11 10:52:26;;;;;;;14.33;9.30;;;33.30;45.30;;;;;;5045940;28;20195;-73
2023/07/11 10:55:13;;;;;;;11.97;9.10;;;33.20;45.80;;;;;;5052188;28;20444;-73
2023/07/11 10:57:44;;;;;;;11.90;9.00;;;33.40;45.40;;;;;;5043448;28;20439;-74
2023/07/11 11:00:20;;;;;;;11.07;8.90;;;33.70;45.40;;;;;;5045668;28;20455;-75
2023/07/11 11:03:12;;;;;;;14.37;9.07;;;34.10;44.50;;;;;;5047717;28;20482;-75
2023/07/11 11:05:58;;;;;;;15.23;8.90;;;34.20;44.20;;;;;;5043826;28;20439;-75
2023/07/11 11:08:57;;;;;;;13.00;8.67;;;34.50;43.40;;;;;;5052615;28;20481;-74
2023/07/11 11:11:29;;;;;;;12.60;8.60;;;34.60;43.40;;;;;;5040651;28;21077;-73
2023/07/11 11:14:04;;;;;;;11.70;8.93;;;34.40;44.20;;;;;;5045179;28;20419;-74
2023/07/11 11:16:41;;;;;;;14.43;9.90;;;34.30;44.50;;;;;;5052457;28;20442;-75
2023/07/11 11:19:26;;;;;;;15.60;9.67;;;34.50;44.10;;;;;;5047732;28;20454;-74
2023/07/11 11:22:00;;;;;;;12.60;9.20;;;34.80;43.80;;;;;;5042101;28;20447;-74
2023/07/11 11:24:57;;;;;;;11.77;9.00;;;34.70;43.80;;;;;;5038523;28;20929;-74
2023/07/11 11:27:46;;;;;;;17.63;8.47;;;35.10;43.10;;;;;;5041874;28;20426;-74
2023/07/11 11:30:40;;;;;;;13.70;9.77;;;35.30;42.40;;;;;;5039688;28;20593;-75
2023/07/11 11:33:21;;;;;;;14.33;9.40;;;35.30;43.00;;;;;;5042356;28;20784;-74
2023/07/11 11:35:47;;;;;;;12.03;9.37;;;35.50;42.00;;;;;;5040933;28;20432;-72
2023/07/11 11:38:21;;;;;;;14.70;9.97;;;35.20;43.10;;;;;;5040088;28;20488;-74
2023/07/11 11:40:55;;;;;;;12.90;9.60;;;35.30;43.00;;;;;;5038816;28;20212;-74
2023/07/11 11:43:24;;;;;;;11.60;8.23;;;35.30;42.70;;;;;;5042013;28;20427;-74
2023/07/11 11:45:51;;;;;;;13.53;9.97;;;35.30;42.80;;;;;;5036369;28;20506;-74
2023/07/11 11:48:21;;;;;;;11.97;9.67;;;35.50;42.20;;;;;;5039682;28;20460;-73
2023/07/11 11:50:47;;;;;;;12.07;8.23;;;35.20;42.80;;;;;;5041290;28;20495;-73
2023/07/11 11:53:34;;;;;;;15.47;9.70;;;35.00;42.40;;;;;;5046133;28;20423;-73
2023/07/11 11:56:03;;;;;;;16.33;8.43;;;35.30;42.30;;;;;;5040017;28;20440;-74
2023/07/11 11:58:31;;;;;;;12.97;9.20;;;35.40;41.00;;;;;;5040336;28;20508;-73
2023/07/11 12:01:00;;;;;;;12.87;8.30;;;35.60;41.10;;;;;;5039417;28;20498;-76
2023/07/11 12:03:43;;;;;;;16.30;8.57;;;35.80;40.20;;;;;;5042591;28;20438;-74
2023/07/11 12:06:34;;;;;;;12.03;8.77;;;36.00;39.80;;;;;;5040782;28;20450;-73
2023/07/11 12:09:23;;;;;;;11.53;8.57;;;35.70;40.40;;;;;;5040867;28;20499;-74
2023/07/11 12:12:10;;;;;;;12.00;8.80;;;35.20;41.80;;;;;;5042865;28;20810;-73
2023/07/11 12:14:56;;;;;;;10.97;9.10;;;35.00;42.60;;;;;;5044909;28;20426;-75
2023/07/11 12:17:33;;;;;;;12.20;9.57;;;35.30;42.40;;;;;;5037199;28;20541;-74
2023/07/11 12:20:02;;;;;;;11.30;8.20;;;34.90;43.50;;;;;;5040245;28;20462;-74
2023/07/11 12:22:37;;;;;;;11.23;8.40;;;34.70;43.20;;;;;;5042811;28;20439;-73
2023/07/11 12:25:05;;;;;;;12.47;9.43;;;35.20;41.90;;;;;;5052232;28;20440;-74
2023/07/11 12:27:31;;;;;;;13.00;9.47;;;35.40;41.40;;;;;;5051964;28;20508;-73
2023/07/11 12:29:59;;;;;;;11.27;8.57;;;35.60;41.80;;;;;;5053335;28;20928;-74
2023/07/11 12:32:33;;;;;;;13.73;9.60;;;35.70;41.90;;;;;;5049309;28;20220;-74
2023/07/11 12:35:05;;;;;;;13.07;8.90;;;35.40;42.20;;;;;;5038435;28;20458;-74
2023/07/11 12:37:55;;;;;;;15.13;9.83;;;34.90;43.40;;;;;;5042627;28;20431;-75
2023/07/11 12:40:41;;;;;;;12.30;9.53;;;35.00;43.20;;;;;;5047949;28;20467;-75
2023/07/11 12:43:29;;;;;;;13.00;8.57;;;35.50;42.30;;;;;;5039019;28;20519;-75
2023/07/11 12:46:00;;;;;;;11.70;8.87;;;35.80;41.80;;;;;;5046869;28;20458;-75
2023/07/11 12:48:32;;;;;;;9.07;8.20;;;35.90;41.40;;;;;;5038365;28;20965;-76
2023/07/11 12:51:05;;;;;;;19.67;9.97;;;36.70;39.60;;;;;;5045134;28;20506;-74